createdAt,value
2018-10-12T00:00:49.260Z,100659.77
2018-10-12T00:03:17.898Z,100661.63
2018-10-12T00:05:46.535Z,100650.97
2018-10-12T00:08:15.150Z,100652.31
2018-10-12T00:10:43.715Z,100646.84
2018-10-12T00:13:12.268Z,100644.86
2018-10-12T00:15:40.842Z,100642.91
2018-10-12T00:18:09.406Z,100632.91
2018-10-12T00:20:38.014Z,100637.15
2018-10-12T00:23:06.567Z,100641.58
2018-10-12T00:25:35.249Z,100639.71
2018-10-12T00:28:03.876Z,100639.53
2018-10-12T00:30:32.419Z,100641.70
2018-10-12T00:33:00.965Z,100638.58
2018-10-12T00:35:29.485Z,100635.38
2018-10-12T00:37:58.541Z,100632.69
2018-10-12T00:40:27.254Z,100629.78
2018-10-12T00:42:55.917Z,100629.18
2018-10-12T00:45:24.464Z,100629.61
2018-10-12T00:47:58.463Z,100627.53
2018-10-12T00:50:27.571Z,100631.56
2018-10-12T00:52:56.204Z,100623.94
2018-10-12T00:55:26.326Z,100634.34
2018-10-12T00:57:54.877Z,100638.19
2018-10-12T01:00:24.565Z,100642.73
2018-10-12T01:02:53.125Z,100636.94
2018-10-12T01:05:21.713Z,100646.04
2018-10-12T01:07:50.518Z,100640.06
2018-10-12T01:10:19.300Z,100638.53
2018-10-12T01:12:48.375Z,100640.89
2018-10-12T01:15:17.470Z,100641.31
2018-10-12T01:17:46.093Z,100640.09
2018-10-12T01:20:14.682Z,100641.73
2018-10-12T01:22:43.266Z,100633.77
2018-10-12T01:25:11.854Z,100633.25
2018-10-12T01:27:40.774Z,100629.52
2018-10-12T01:30:09.402Z,100629.73
2018-10-12T01:32:43.207Z,100634.80
2018-10-12T01:35:11.808Z,100639.54
2018-10-12T01:37:40.538Z,100645.42
2018-10-12T01:40:09.218Z,100638.31
2018-10-12T01:42:44.518Z,100635.22
2018-10-12T01:45:13.083Z,100642.75
2018-10-12T01:47:41.660Z,100636.95
2018-10-12T01:50:10.376Z,100638.00
2018-10-12T01:52:39.056Z,100628.59
2018-10-12T01:55:07.874Z,100631.16
2018-10-12T01:57:36.471Z,100628.59
2018-10-12T02:00:05.218Z,100633.33
2018-10-12T02:02:33.880Z,100634.98
2018-10-12T02:05:02.481Z,100637.35
2018-10-12T02:07:31.241Z,100637.35
2018-10-12T02:09:59.857Z,100633.63
2018-10-12T02:12:28.658Z,100634.89
2018-10-12T02:14:57.218Z,100628.28
2018-10-12T02:17:25.805Z,100631.06
2018-10-12T02:19:54.345Z,100627.17
2018-10-12T02:22:23.211Z,100623.45
2018-10-12T02:24:51.933Z,100633.24
2018-10-12T02:27:20.480Z,100634.28
2018-10-12T02:29:49.066Z,100633.77
2018-10-12T02:32:17.649Z,100637.69
2018-10-12T02:34:46.288Z,100634.18
2018-10-12T02:37:14.909Z,100632.41
2018-10-12T02:39:43.518Z,100633.65
2018-10-12T02:42:12.857Z,100638.61
2018-10-12T02:44:42.126Z,100639.12
2018-10-12T02:47:10.800Z,100627.86
2018-10-12T02:49:39.594Z,100631.14
2018-10-12T02:52:08.357Z,100634.47
2018-10-12T02:54:36.922Z,100636.71
2018-10-12T02:57:05.538Z,100640.73
2018-10-12T02:59:34.087Z,100636.62
2018-10-12T03:02:02.947Z,100640.02
2018-10-12T03:04:31.916Z,100654.97
2018-10-12T03:07:00.578Z,100656.64
2018-10-12T03:09:29.206Z,100657.77
2018-10-12T03:11:57.894Z,100651.06
2018-10-12T03:14:26.733Z,100655.30
2018-10-12T03:16:55.751Z,100650.97
2018-10-12T03:19:25.017Z,100652.52
2018-10-12T03:21:53.758Z,100651.79
2018-10-12T03:24:22.480Z,100649.11
2018-10-12T03:26:51.040Z,100652.53
2018-10-12T03:29:19.934Z,100652.64
2018-10-12T03:31:49.446Z,100654.08
2018-10-12T03:34:18.026Z,100662.53
2018-10-12T03:36:46.638Z,100661.31
2018-10-12T03:39:15.162Z,100666.47
2018-10-12T03:41:44.269Z,100673.08
2018-10-12T03:44:13.429Z,100668.66
2018-10-12T03:46:43.232Z,100675.36
2018-10-12T03:49:12.274Z,100677.93
2018-10-12T03:51:40.807Z,100678.23
2018-10-12T03:54:09.896Z,100684.64
2018-10-12T03:56:38.890Z,100686.42
2018-10-12T03:59:07.546Z,100689.50
2018-10-12T04:01:36.150Z,100685.08
2018-10-12T04:04:04.858Z,100688.06
2018-10-12T04:06:33.422Z,100684.95
2018-10-12T04:09:01.950Z,100685.06
2018-10-12T04:11:30.532Z,100683.28
2018-10-12T04:13:59.094Z,100681.64
2018-10-12T04:16:27.644Z,100688.02
2018-10-12T04:18:56.214Z,100682.73
2018-10-12T04:21:25.348Z,100695.73
2018-10-12T04:23:53.956Z,100692.02
2018-10-12T04:26:22.901Z,100698.00
2018-10-12T04:28:51.505Z,100705.84
2018-10-12T04:31:20.971Z,100704.19
2018-10-12T04:33:49.703Z,100714.72
2018-10-12T04:36:18.401Z,100708.01
2018-10-12T04:38:58.053Z,100721.11
2018-10-12T04:41:27.114Z,100722.55
2018-10-12T04:44:00.642Z,100730.16
2018-10-12T04:46:33.073Z,100736.05
2018-10-12T04:49:02.419Z,100745.01
2018-10-12T04:51:35.476Z,100750.38
2018-10-12T04:54:04.625Z,100755.47
2018-10-12T04:56:33.357Z,100750.32
2018-10-12T04:59:02.273Z,100760.00
2018-10-12T05:01:32.058Z,100756.68
2018-10-12T05:04:00.628Z,100756.25
2018-10-12T05:06:30.278Z,100754.50
2018-10-12T05:08:58.923Z,100754.64
2018-10-12T05:11:27.502Z,100752.59
2018-10-12T05:13:56.198Z,100747.33
2018-10-12T05:16:26.383Z,100751.15
2018-10-12T05:18:55.294Z,100756.30
2018-10-12T05:21:23.880Z,100762.69
2018-10-12T05:23:52.504Z,100763.25
2018-10-12T05:26:21.043Z,100759.30
2018-10-12T05:28:49.600Z,100766.47
2018-10-12T05:31:18.226Z,100770.53
2018-10-12T05:33:47.083Z,100772.22
2018-10-12T05:36:16.654Z,100771.91
2018-10-12T05:38:45.391Z,100778.36
2018-10-12T05:41:14.771Z,100785.72
2018-10-12T05:43:44.243Z,100789.16
2018-10-12T05:46:13.170Z,100793.70
2018-10-12T05:48:52.947Z,100799.82
2018-10-12T05:51:21.919Z,100814.64
2018-10-12T05:53:51.525Z,100815.25
2018-10-12T05:56:26.401Z,100817.22
2018-10-12T05:58:56.083Z,100822.01
2018-10-12T06:01:25.015Z,100827.34
2018-10-12T06:03:54.093Z,100824.97
2018-10-12T06:06:22.881Z,100825.77
2018-10-12T06:08:53.555Z,100830.56
2018-10-12T06:11:22.241Z,100838.79
2018-10-12T06:13:51.466Z,100838.76
2018-10-12T06:16:20.631Z,100836.25
2018-10-12T06:18:49.818Z,100838.29
2018-10-12T06:21:18.678Z,100842.17
2018-10-12T06:23:47.946Z,100843.42
2018-10-12T06:26:17.082Z,100839.33
2018-10-12T06:28:45.698Z,100829.03
2018-10-12T06:31:14.419Z,100826.17
2018-10-12T06:33:43.206Z,100820.05
2018-10-12T06:36:12.195Z,100823.05
2018-10-12T06:38:40.943Z,100826.03
2018-10-12T06:41:09.897Z,100830.62
2018-10-12T06:43:38.829Z,100840.37
2018-10-12T06:46:08.038Z,100848.31
2018-10-12T06:48:36.642Z,100840.65
2018-10-12T06:51:05.230Z,100837.36
2018-10-12T06:53:33.831Z,100838.77
2018-10-12T06:56:02.516Z,100835.47
2018-10-12T06:58:31.077Z,100847.80
2018-10-12T07:00:59.755Z,100849.89
2018-10-12T07:03:28.476Z,100842.26
2018-10-12T07:05:57.062Z,100843.34
2018-10-12T07:08:25.740Z,100847.89
2018-10-12T07:10:54.970Z,100847.34
2018-10-12T07:13:23.557Z,100866.65
2018-10-12T07:15:52.169Z,100871.49
2018-10-12T07:18:20.783Z,100865.55
2018-10-12T07:20:50.038Z,100870.89
2018-10-12T07:23:19.249Z,100867.96
2018-10-12T07:25:48.387Z,100876.16
2018-10-12T07:28:17.782Z,100880.80
2018-10-12T07:30:46.946Z,100882.30
2018-10-12T07:33:16.687Z,100879.23
2018-10-12T07:35:45.854Z,100887.23
2018-10-12T07:38:15.694Z,100881.52
2018-10-12T07:40:44.929Z,100889.59
2018-10-12T07:43:14.090Z,100889.14
2018-10-12T07:45:43.123Z,100893.55
2018-10-12T07:48:12.317Z,100896.98
2018-10-12T07:50:42.670Z,100900.27
2018-10-12T07:53:12.674Z,100898.34
2018-10-12T07:55:41.767Z,100891.77
2018-10-12T07:58:10.466Z,100894.75
2018-10-12T08:00:39.185Z,100896.32
2018-10-12T08:03:08.630Z,100906.20
2018-10-12T08:05:37.268Z,100901.59
2018-10-12T08:08:06.418Z,100910.63
2018-10-12T08:10:36.187Z,100907.27
2018-10-12T08:13:05.431Z,100918.31
2018-10-12T08:15:34.667Z,100922.27
2018-10-12T08:18:03.734Z,100919.18
2018-10-12T08:20:32.539Z,100922.38
2018-10-12T08:23:02.075Z,100922.03
2018-10-12T08:25:30.969Z,100923.64
2018-10-12T08:27:59.522Z,100926.74
2018-10-12T08:30:28.106Z,100921.84
2018-10-12T08:32:56.673Z,100930.56
2018-10-12T08:35:25.259Z,100931.17
2018-10-12T08:37:53.838Z,100929.47
2018-10-12T08:40:23.115Z,100931.48
2018-10-12T08:42:51.706Z,100930.91
2018-10-12T08:45:20.253Z,100937.48
2018-10-12T08:47:48.895Z,100936.17
2018-10-12T08:50:17.508Z,100933.72
2018-10-12T08:52:46.109Z,100934.11
2018-10-12T08:55:15.430Z,100927.67
2018-10-12T08:57:44.334Z,100930.83
2018-10-12T09:00:13.246Z,100928.87
2018-10-12T09:02:41.839Z,100925.88
2018-10-12T09:05:10.427Z,100919.34
2018-10-12T09:07:39.027Z,100918.25
2018-10-12T09:10:07.964Z,100914.20
2018-10-12T09:12:36.834Z,100909.85
2018-10-12T09:15:05.468Z,100916.48
2018-10-12T09:17:34.493Z,100907.58
2018-10-12T09:20:03.173Z,100910.53
2018-10-12T09:22:31.728Z,100908.41
2018-10-12T09:25:00.326Z,100911.33
2018-10-12T09:27:29.227Z,100910.16
2018-10-12T09:29:57.784Z,100900.84
2018-10-12T09:32:26.402Z,100899.77
2018-10-12T09:34:55.102Z,100900.98
2018-10-12T09:37:23.743Z,100901.05
2018-10-12T09:39:52.538Z,100905.79
2018-10-12T09:42:21.096Z,100909.44
2018-10-12T09:44:50.010Z,100899.36
2018-10-12T09:47:18.587Z,100895.77
2018-10-12T09:49:47.231Z,100913.73
2018-10-12T09:52:15.926Z,100905.15
2018-10-12T09:54:44.592Z,100905.47
2018-10-12T09:57:18.444Z,100912.62
2018-10-12T09:59:47.017Z,100911.87
2018-10-12T10:02:21.115Z,100916.54
2018-10-12T10:04:49.836Z,100915.59
2018-10-12T10:07:18.662Z,100917.52
2018-10-12T10:09:47.262Z,100916.75
2018-10-12T10:12:16.200Z,100907.95
2018-10-12T10:14:44.764Z,100906.62
2018-10-12T10:17:13.306Z,100899.38
2018-10-12T10:19:41.859Z,100901.84
2018-10-12T10:22:10.425Z,100903.53
2018-10-12T10:24:39.009Z,100902.00
2018-10-12T10:27:08.046Z,100907.46
2018-10-12T10:29:36.726Z,100898.47
2018-10-12T10:32:05.408Z,100900.45
2018-10-12T10:34:34.143Z,100895.27
2018-10-12T10:37:03.102Z,100902.68
2018-10-12T10:39:31.661Z,100894.73
2018-10-12T10:42:00.813Z,100896.38
2018-10-12T10:44:29.380Z,100898.05
2018-10-12T10:46:57.970Z,100902.48
2018-10-12T10:49:26.629Z,100902.17
2018-10-12T10:51:55.398Z,100897.77
2018-10-12T10:54:23.979Z,100891.23
2018-10-12T10:56:54.874Z,100884.75
2018-10-12T10:59:23.444Z,100893.20
2018-10-12T11:01:52.023Z,100892.89
2018-10-12T11:04:20.574Z,100897.30
2018-10-12T11:06:49.549Z,100889.90
2018-10-12T11:09:18.135Z,100889.02
2018-10-12T11:11:46.712Z,100882.46
2018-10-12T11:14:15.367Z,100888.73
2018-10-12T11:16:44.024Z,100886.35
2018-10-12T11:19:12.573Z,100880.93
2018-10-12T11:21:41.113Z,100878.78
2018-10-12T11:24:09.821Z,100876.05
2018-10-12T11:26:38.789Z,100880.48
2018-10-12T11:29:07.534Z,100879.93
2018-10-12T11:31:36.158Z,100877.47
2018-10-12T11:34:04.743Z,100883.50
2018-10-12T11:36:33.340Z,100873.10
2018-10-12T11:39:01.974Z,100874.72
2018-10-12T11:41:31.118Z,100871.17
2018-10-12T11:43:59.693Z,100871.17
2018-10-12T11:46:28.286Z,100864.37
2018-10-12T11:48:56.942Z,100860.58
2018-10-12T11:51:26.126Z,100863.02
2018-10-12T11:53:54.703Z,100864.69
2018-10-12T11:56:23.850Z,100853.22
2018-10-12T11:58:52.386Z,100852.97
2018-10-12T12:01:21.043Z,100856.50
2018-10-12T12:03:49.833Z,100854.31
2018-10-12T12:06:18.452Z,100848.05
2018-10-12T12:08:47.069Z,100849.95
2018-10-12T12:11:15.638Z,100847.48
2018-10-12T12:13:44.227Z,100846.15
2018-10-12T12:16:13.016Z,100843.18
2018-10-12T12:18:41.593Z,100836.89
2018-10-12T12:21:10.246Z,100836.89
2018-10-12T12:23:38.827Z,100836.35
2018-10-12T12:26:07.894Z,100838.82
2018-10-12T12:28:36.480Z,100847.27
2018-10-12T12:31:05.148Z,100848.10
2018-10-12T12:33:34.322Z,100849.46
2018-10-12T12:36:03.932Z,100842.91
2018-10-12T12:38:32.579Z,100837.16
2018-10-12T12:41:01.324Z,100839.89
2018-10-12T12:43:30.542Z,100834.69
2018-10-12T12:45:59.738Z,100839.63
2018-10-12T12:48:28.659Z,100847.25
2018-10-12T12:50:57.252Z,100838.80
2018-10-12T12:53:26.441Z,100834.95
2018-10-12T12:55:55.596Z,100840.97
2018-10-12T12:58:24.189Z,100844.52
2018-10-12T13:00:53.067Z,100843.97
2018-10-12T13:03:22.377Z,100843.70
2018-10-12T13:05:51.812Z,100844.53
2018-10-12T13:08:20.490Z,100843.97
2018-10-12T13:10:49.098Z,100839.05
2018-10-12T13:13:17.718Z,100839.86
2018-10-12T13:15:46.540Z,100836.61
2018-10-12T13:18:15.152Z,100832.22
2018-10-12T13:20:43.737Z,100836.86
2018-10-12T13:23:12.709Z,100836.61
2018-10-12T13:25:41.458Z,100842.88
2018-10-12T13:28:10.402Z,100840.14
2018-10-12T13:30:39.013Z,100842.61
2018-10-12T13:33:07.610Z,100840.41
2018-10-12T13:35:36.219Z,100839.05
2018-10-12T13:38:04.808Z,100840.70
2018-10-12T13:40:33.507Z,100841.52
2018-10-12T13:43:02.460Z,100840.98
2018-10-12T13:45:31.129Z,100841.80
2018-10-12T13:48:00.342Z,100844.27
2018-10-12T13:50:29.506Z,100842.08
2018-10-12T13:52:58.098Z,100847.81
2018-10-12T13:55:26.906Z,100850.83
2018-10-12T13:57:55.482Z,100854.91
2018-10-12T14:00:24.291Z,100854.11
2018-10-12T14:02:53.390Z,100843.19
2018-10-12T14:05:22.117Z,100844.80
2018-10-12T14:07:50.768Z,100853.55
2018-10-12T14:10:19.361Z,100843.17
2018-10-12T14:12:48.233Z,100848.64
2018-10-12T14:15:17.718Z,100846.45
2018-10-12T14:17:46.299Z,100847.53
2018-10-12T14:20:14.920Z,100849.72
2018-10-12T14:22:44.440Z,100855.73
2018-10-12T14:25:13.225Z,100847.27
2018-10-12T14:27:42.042Z,100846.95
2018-10-12T14:30:10.637Z,100851.60
2018-10-12T14:32:39.245Z,100849.97
2018-10-12T14:35:08.123Z,100845.59
2018-10-12T14:37:37.032Z,100842.59
2018-10-12T14:40:05.594Z,100845.85
2018-10-12T14:42:35.016Z,100842.86
2018-10-12T14:45:03.760Z,100839.01
2018-10-12T14:47:32.699Z,100836.56
2018-10-12T14:50:01.283Z,100836.81
2018-10-12T14:52:29.898Z,100833.24
2018-10-12T14:54:58.462Z,100836.22
2018-10-12T14:57:27.084Z,100829.95
2018-10-12T14:59:55.682Z,100827.20
2018-10-12T15:02:24.322Z,100825.81
2018-10-12T15:04:52.931Z,100832.02
2018-10-12T15:07:21.539Z,100825.75
2018-10-12T15:09:50.163Z,100829.80
2018-10-12T15:12:18.742Z,100835.77
2018-10-12T15:14:58.554Z,100843.39
2018-10-12T15:17:27.105Z,100843.08
2018-10-12T15:19:55.740Z,100840.85
2018-10-12T15:22:24.584Z,100833.67
2018-10-12T15:24:53.167Z,100838.25
2018-10-12T15:27:21.774Z,100840.09
2018-10-12T15:29:50.344Z,100835.92
2018-10-12T15:32:18.930Z,100838.36
2018-10-12T15:34:47.496Z,100844.84
2018-10-12T15:37:16.118Z,100844.23
2018-10-12T15:39:44.934Z,100845.84
2018-10-12T15:42:13.865Z,100853.67
2018-10-12T15:44:42.434Z,100857.97
2018-10-12T15:47:11.021Z,100858.69
2018-10-12T15:49:44.516Z,100858.33
2018-10-12T15:52:13.223Z,100862.94
2018-10-12T15:54:41.791Z,100861.22
2018-10-12T15:57:10.527Z,100855.38
2018-10-12T15:59:39.243Z,100859.59
2018-10-12T16:02:08.627Z,100864.12
2018-10-12T16:04:37.450Z,100870.59
2018-10-12T16:07:06.361Z,100872.11
2018-10-12T16:09:34.935Z,100872.81
2018-10-12T16:12:03.915Z,100878.97
2018-10-12T16:14:32.519Z,100878.84
2018-10-12T16:17:01.330Z,100872.20
2018-10-12T16:19:29.899Z,100874.83
2018-10-12T16:21:58.525Z,100880.94
2018-10-12T16:24:27.204Z,100884.30
2018-10-12T16:26:55.862Z,100883.33
2018-10-12T16:29:24.434Z,100889.71
2018-10-12T16:31:53.007Z,100886.59
2018-10-12T16:34:21.646Z,100890.25
2018-10-12T16:36:50.200Z,100884.44
2018-10-12T16:39:18.830Z,100893.02
2018-10-12T16:41:47.532Z,100890.84
2018-10-12T16:44:16.601Z,100893.48
2018-10-12T16:46:46.090Z,100898.80
2018-10-12T16:49:14.635Z,100902.27
2018-10-12T16:51:43.218Z,100904.45
2018-10-12T16:54:11.782Z,100907.05
2018-10-12T16:56:40.384Z,100896.66
2018-10-12T16:59:09.118Z,100906.12
2018-10-12T17:01:38.738Z,100903.30
2018-10-12T17:04:07.438Z,100912.64
2018-10-12T17:06:36.556Z,100917.62
2018-10-12T17:09:05.904Z,100917.09
2018-10-12T17:11:34.522Z,100921.28
2018-10-12T17:14:03.086Z,100922.47
2018-10-12T17:16:31.640Z,100921.23
2018-10-12T17:19:00.237Z,100919.34
2018-10-12T17:21:28.945Z,100920.88
2018-10-12T17:23:57.577Z,100931.09
2018-10-12T17:26:26.138Z,100926.90
2018-10-12T17:28:54.707Z,100926.27
2018-10-12T17:31:23.244Z,100935.05
2018-10-12T17:33:51.803Z,100934.45
2018-10-12T17:36:20.536Z,100931.57
2018-10-12T17:38:49.134Z,100941.11
2018-10-12T17:41:19.238Z,100942.86
2018-10-12T17:43:48.126Z,100943.15
2018-10-12T17:46:17.053Z,100939.96
2018-10-12T17:48:45.666Z,100948.42
2018-10-12T17:51:14.549Z,100948.16
2018-10-12T17:53:43.249Z,100950.05
2018-10-12T17:56:11.835Z,100950.78
2018-10-12T17:58:40.544Z,100952.55
2018-10-12T18:01:09.306Z,100952.94
2018-10-12T18:03:37.878Z,100957.81
2018-10-12T18:06:06.801Z,100949.94
2018-10-12T18:08:35.349Z,100953.11
2018-10-12T18:11:03.906Z,100959.17
2018-10-12T18:13:32.494Z,100951.34
2018-10-12T18:16:01.083Z,100952.70
2018-10-12T18:18:29.730Z,100955.64
2018-10-12T18:20:58.309Z,100953.94
2018-10-12T18:23:26.892Z,100963.84
2018-10-12T18:25:55.544Z,100963.84
2018-10-12T18:28:24.314Z,100966.25
2018-10-12T18:30:52.871Z,100967.25
2018-10-12T18:33:21.530Z,100969.74
2018-10-12T18:35:50.174Z,100974.34
2018-10-12T18:38:18.777Z,100963.55
2018-10-12T18:40:47.347Z,100961.14
2018-10-12T18:43:16.031Z,100965.42
2018-10-12T18:45:44.745Z,100966.33
2018-10-12T18:48:13.468Z,100968.57
2018-10-12T18:50:42.394Z,100973.09
2018-10-12T18:53:11.118Z,100971.74
2018-10-12T18:55:39.705Z,100975.50
2018-10-12T18:58:08.303Z,100967.23
2018-10-12T19:00:36.890Z,100970.85
2018-10-12T19:03:05.530Z,100965.16
2018-10-12T19:05:34.085Z,100959.59
2018-10-12T19:08:02.831Z,100972.63
2018-10-12T19:10:31.454Z,100974.73
2018-10-12T19:12:59.998Z,100979.69
2018-10-12T19:15:28.591Z,100979.09
2018-10-12T19:17:57.225Z,100987.13
2018-10-12T19:20:25.781Z,100980.60
2018-10-12T19:22:54.369Z,100977.31
2018-10-12T19:25:23.090Z,100980.89
2018-10-12T19:27:51.826Z,100983.20
2018-10-12T19:30:20.403Z,100983.13
2018-10-12T19:32:49.103Z,100988.39
2018-10-12T19:35:17.697Z,100988.00
2018-10-12T19:37:46.325Z,100991.98
2018-10-12T19:40:14.942Z,100989.20
2018-10-12T19:42:43.646Z,100998.03
2018-10-12T19:45:12.253Z,101000.98
2018-10-12T19:47:41.253Z,101007.08
2018-10-12T19:50:09.832Z,101010.16
2018-10-12T19:52:38.452Z,101007.06
2018-10-12T19:55:07.343Z,101007.54
2018-10-12T19:57:35.907Z,101008.33
2018-10-12T20:00:04.757Z,101013.50
2018-10-12T20:02:33.442Z,101017.02
2018-10-12T20:05:02.049Z,101014.32
2018-10-12T20:07:30.615Z,101019.23
2018-10-12T20:09:59.170Z,101016.45
2018-10-12T20:12:27.735Z,101022.83
2018-10-12T20:14:56.408Z,101028.89
2018-10-12T20:17:25.039Z,101033.87
2018-10-12T20:19:53.886Z,101032.48
2018-10-12T20:22:22.438Z,101024.80
2018-10-12T20:24:51.006Z,101033.94
2018-10-12T20:27:19.566Z,101033.04
2018-10-12T20:29:48.154Z,101032.13
2018-10-12T20:32:16.730Z,101033.78
2018-10-12T20:34:45.414Z,101033.94
2018-10-12T20:37:13.998Z,101037.66
2018-10-12T20:39:42.543Z,101038.48
2018-10-12T20:42:11.155Z,101036.53
2018-10-12T20:44:39.712Z,101040.08
2018-10-12T20:47:08.292Z,101034.19
2018-10-12T20:49:36.941Z,101034.11
2018-10-12T20:52:05.728Z,101032.55
2018-10-12T20:54:34.347Z,101026.55
2018-10-12T20:57:02.939Z,101029.02
2018-10-12T20:59:31.662Z,101032.44
2018-10-12T21:02:00.259Z,101032.81
2018-10-12T21:04:28.818Z,101030.95
2018-10-12T21:07:01.071Z,101033.15
2018-10-12T21:09:29.621Z,101031.50
2018-10-12T21:11:58.186Z,101029.98
2018-10-12T21:14:26.824Z,101028.36
2018-10-12T21:16:55.761Z,101032.79
2018-10-12T21:19:24.577Z,101026.97
2018-10-12T21:21:53.305Z,101030.58
2018-10-12T21:24:21.894Z,101029.98
2018-10-12T21:26:50.470Z,101032.16
2018-10-12T21:29:19.014Z,101032.29
2018-10-12T21:31:47.802Z,101030.34
2018-10-12T21:34:16.573Z,101029.86
2018-10-12T21:36:45.278Z,101029.03
2018-10-12T21:39:14.110Z,101023.34
2018-10-12T21:41:42.684Z,101027.78
2018-10-12T21:44:11.655Z,101028.09
2018-10-12T21:46:40.292Z,101020.66
2018-10-12T21:49:08.983Z,101017.23
2018-10-12T21:51:37.762Z,101015.58
2018-10-12T21:54:06.400Z,101009.80
2018-10-12T21:56:35.003Z,101014.68
2018-10-12T21:59:03.582Z,101013.65
2018-10-12T22:01:32.233Z,101009.49
2018-10-12T22:04:00.802Z,101016.92
2018-10-12T22:06:29.825Z,101011.75
2018-10-12T22:09:02.690Z,101012.40
2018-10-12T22:11:31.294Z,101017.34
2018-10-12T22:13:59.871Z,101017.31
2018-10-12T22:16:28.709Z,101020.39
2018-10-12T22:18:57.634Z,101017.76
2018-10-12T22:21:26.614Z,101013.05
2018-10-12T22:23:55.207Z,101015.25
2018-10-12T22:26:23.835Z,101011.14
2018-10-12T22:28:52.402Z,101014.97
2018-10-12T22:31:20.994Z,101013.50
2018-10-12T22:33:49.666Z,101014.27
2018-10-12T22:36:19.261Z,101015.74
2018-10-12T22:38:48.006Z,101015.66
2018-10-12T22:41:16.758Z,101021.38
2018-10-12T22:43:45.398Z,101022.98
2018-10-12T22:46:14.062Z,101022.40
2018-10-12T22:48:42.671Z,101016.81
2018-10-12T22:51:11.255Z,101017.63
2018-10-12T22:53:40.400Z,101021.84
2018-10-12T22:56:09.341Z,101022.05
2018-10-12T22:58:38.071Z,101021.47
2018-10-12T23:01:07.187Z,101016.00
2018-10-12T23:03:35.985Z,101018.67
2018-10-12T23:06:04.571Z,101023.09
2018-10-12T23:08:33.209Z,101020.47
2018-10-12T23:11:01.922Z,101013.82
2018-10-12T23:13:30.682Z,101021.49
2018-10-12T23:15:59.415Z,101018.00
2018-10-12T23:18:28.305Z,101015.14
2018-10-12T23:20:58.225Z,101008.63
2018-10-12T23:23:26.941Z,101015.89
2018-10-12T23:25:55.639Z,101017.23
2018-10-12T23:28:24.271Z,101014.95
2018-10-12T23:30:52.939Z,101022.28
2018-10-12T23:33:32.734Z,101023.50
2018-10-12T23:36:01.471Z,101021.89
2018-10-12T23:38:30.086Z,101029.58
2018-10-12T23:40:58.734Z,101028.39
2018-10-12T23:43:27.344Z,101032.48
2018-10-12T23:45:55.906Z,101031.55
2018-10-12T23:48:24.748Z,101032.45
2018-10-12T23:50:55.591Z,101032.69
2018-10-12T23:53:24.403Z,101038.61
2018-10-12T23:55:53.043Z,101036.27
2018-10-12T23:58:24.588Z,101026.74
